createdAt,value
2019-01-20T00:02:01.050Z,15.13
2019-01-20T00:04:29.462Z,12.40
2019-01-20T00:06:57.825Z,9.77
2019-01-20T00:09:26.186Z,8.77
2019-01-20T00:11:54.592Z,9.20
2019-01-20T00:14:22.958Z,9.13
2019-01-20T00:16:52.789Z,9.03
2019-01-20T00:19:21.847Z,8.77
2019-01-20T00:21:51.416Z,8.40
2019-01-20T00:24:19.890Z,8.43
2019-01-20T00:26:48.300Z,8.97
2019-01-20T00:29:16.667Z,9.23
2019-01-20T00:31:45.031Z,9.30
2019-01-20T00:34:13.480Z,9.90
2019-01-20T00:36:42.099Z,9.40
2019-01-20T00:39:10.467Z,10.20
2019-01-20T00:41:38.875Z,10.53
2019-01-20T00:44:07.245Z,9.03
2019-01-20T00:46:35.939Z,9.27
2019-01-20T00:49:04.334Z,9.47
2019-01-20T00:51:33.070Z,9.03
2019-01-20T00:54:01.602Z,8.70
2019-01-20T00:56:30.666Z,8.40
2019-01-20T00:58:59.031Z,8.00
2019-01-20T01:01:27.390Z,7.80
2019-01-20T01:03:55.786Z,8.33
2019-01-20T01:06:24.160Z,8.63
2019-01-20T01:08:52.547Z,8.73
2019-01-20T01:11:20.962Z,9.50
2019-01-20T01:13:49.336Z,10.00
2019-01-20T01:16:17.702Z,10.83
2019-01-20T01:18:47.951Z,10.30
2019-01-20T01:21:16.325Z,11.80
2019-01-20T01:23:44.687Z,12.37
2019-01-20T01:26:13.099Z,12.17
2019-01-20T01:28:41.464Z,11.00
2019-01-20T01:31:09.835Z,11.33
2019-01-20T01:33:38.227Z,9.90
2019-01-20T01:36:06.597Z,10.00
2019-01-20T01:38:34.958Z,9.77
2019-01-20T01:41:04.522Z,10.37
2019-01-20T01:43:32.882Z,9.87
2019-01-20T01:46:01.244Z,12.13
2019-01-20T01:48:29.700Z,11.33
2019-01-20T01:50:58.066Z,11.17
2019-01-20T01:53:26.438Z,11.33
2019-01-20T01:55:54.843Z,11.77
2019-01-20T01:58:23.218Z,11.90
2019-01-20T02:00:51.582Z,11.80
2019-01-20T02:03:20.700Z,11.47
2019-01-20T02:05:49.077Z,12.33
2019-01-20T02:08:17.451Z,11.80
2019-01-20T02:10:45.864Z,10.40
2019-01-20T02:13:14.235Z,10.27
2019-01-20T02:15:43.534Z,9.23
2019-01-20T02:18:11.859Z,9.33
2019-01-20T02:20:41.255Z,9.73
2019-01-20T02:23:09.626Z,10.07
2019-01-20T02:25:39.306Z,10.00
2019-01-20T02:28:08.044Z,10.17
2019-01-20T02:30:36.412Z,10.70
2019-01-20T02:33:04.814Z,11.03
2019-01-20T02:35:33.195Z,11.27
2019-01-20T02:38:01.568Z,10.93
2019-01-20T02:40:29.980Z,10.80
2019-01-20T02:42:58.361Z,10.83
2019-01-20T02:45:26.723Z,9.57
2019-01-20T02:47:56.194Z,10.13
2019-01-20T02:50:24.568Z,10.63
2019-01-20T02:52:52.940Z,11.20
2019-01-20T02:55:21.338Z,10.67
2019-01-20T02:57:49.807Z,11.33
2019-01-20T03:00:22.859Z,10.90
2019-01-20T03:02:51.350Z,10.90
2019-01-20T03:05:20.755Z,11.10
2019-01-20T03:07:49.158Z,10.53
2019-01-20T03:10:18.599Z,10.93
2019-01-20T03:12:46.970Z,10.00
2019-01-20T03:15:15.339Z,9.60
2019-01-20T03:17:43.744Z,11.43
2019-01-20T03:20:14.760Z,10.27
2019-01-20T03:22:45.367Z,10.57
2019-01-20T03:25:15.311Z,10.73
2019-01-20T03:27:43.691Z,11.73
2019-01-20T03:30:14.511Z,10.77
2019-01-20T03:32:43.835Z,10.60
2019-01-20T03:35:12.841Z,11.00
2019-01-20T03:37:41.219Z,11.30
2019-01-20T03:40:12.874Z,11.60
2019-01-20T03:42:41.244Z,10.27
2019-01-20T03:45:12.457Z,11.47
2019-01-20T03:47:40.866Z,11.40
2019-01-20T03:50:11.189Z,9.63
2019-01-20T03:52:39.547Z,10.63
2019-01-20T03:55:11.755Z,9.93
2019-01-20T03:57:40.129Z,9.97
2019-01-20T04:00:14.814Z,11.27
2019-01-20T04:02:43.583Z,10.93
2019-01-20T04:05:11.951Z,9.93
2019-01-20T04:07:40.324Z,11.63
2019-01-20T04:10:12.068Z,10.70
2019-01-20T04:12:40.443Z,10.97
2019-01-20T04:15:09.762Z,11.17
2019-01-20T04:17:38.924Z,11.37
2019-01-20T04:20:08.826Z,9.57
2019-01-20T04:22:37.205Z,11.53
2019-01-20T04:25:10.041Z,11.83
2019-01-20T04:27:38.730Z,11.37
2019-01-20T04:30:09.446Z,12.23
2019-01-20T04:32:37.849Z,15.33
2019-01-20T04:35:08.159Z,16.90
2019-01-20T04:37:36.532Z,14.57
2019-01-20T04:40:11.567Z,14.50
2019-01-20T04:42:39.940Z,13.77
2019-01-20T04:45:11.059Z,13.53
2019-01-20T04:47:39.474Z,13.27
2019-01-20T04:50:10.987Z,12.50
2019-01-20T04:52:39.355Z,12.90
2019-01-20T04:55:09.699Z,16.03
2019-01-20T04:57:38.494Z,16.10
2019-01-20T05:00:10.132Z,12.33
2019-01-20T05:02:39.487Z,9.63
2019-01-20T05:05:07.855Z,9.50
2019-01-20T05:07:36.227Z,9.47
2019-01-20T05:10:10.491Z,10.63
2019-01-20T05:12:38.866Z,9.13
2019-01-20T05:15:16.205Z,10.83
2019-01-20T05:17:44.896Z,10.80
2019-01-20T05:20:13.267Z,11.47
2019-01-20T05:22:42.623Z,10.60
2019-01-20T05:25:11.844Z,10.80
2019-01-20T05:27:40.866Z,11.23
2019-01-20T05:30:12.415Z,11.37
2019-01-20T05:32:41.104Z,11.53
2019-01-20T05:35:10.618Z,10.77
2019-01-20T05:37:39.016Z,10.93
2019-01-20T05:40:17.371Z,9.13
2019-01-20T05:42:46.781Z,11.30
2019-01-20T05:45:21.142Z,10.50
2019-01-20T05:47:49.520Z,10.37
2019-01-20T05:50:17.924Z,10.70
2019-01-20T05:52:46.299Z,15.67
2019-01-20T05:55:15.307Z,13.67
2019-01-20T05:57:44.447Z,11.10
2019-01-20T06:00:16.078Z,11.40
2019-01-20T06:02:44.463Z,12.27
2019-01-20T06:05:12.867Z,14.40
2019-01-20T06:07:41.271Z,13.27
2019-01-20T06:10:11.878Z,13.50
2019-01-20T06:12:40.285Z,17.10
2019-01-20T06:15:17.016Z,13.47
2019-01-20T06:17:48.639Z,11.80
2019-01-20T06:20:17.455Z,11.40
2019-01-20T06:22:46.115Z,10.47
2019-01-20T06:25:14.545Z,10.50
2019-01-20T06:27:42.908Z,9.93
2019-01-20T06:30:18.538Z,10.80
2019-01-20T06:33:06.353Z,10.10
2019-01-20T06:35:35.355Z,10.37
2019-01-20T06:38:03.729Z,11.07
2019-01-20T06:40:32.100Z,10.50
2019-01-20T06:43:02.268Z,10.90
2019-01-20T06:45:30.523Z,13.10
2019-01-20T06:47:58.959Z,13.43
2019-01-20T06:50:27.324Z,13.73
2019-01-20T06:52:55.711Z,14.77
2019-01-20T06:55:24.087Z,14.67
2019-01-20T06:57:53.014Z,14.70
2019-01-20T07:00:22.641Z,13.93
2019-01-20T07:02:50.996Z,12.87
2019-01-20T07:05:19.411Z,11.87
2019-01-20T07:07:47.847Z,11.93
2019-01-20T07:10:17.664Z,12.27
2019-01-20T07:12:46.067Z,13.53
2019-01-20T07:15:19.405Z,13.57
2019-01-20T07:17:47.770Z,15.97
2019-01-20T07:20:17.628Z,16.23
2019-01-20T07:22:45.995Z,18.87
2019-01-20T07:25:14.379Z,22.60
2019-01-20T07:27:42.778Z,22.57
2019-01-20T07:30:20.233Z,18.53
2019-01-20T07:32:50.005Z,15.17
2019-01-20T07:35:19.263Z,14.00
2019-01-20T07:37:47.704Z,15.83
2019-01-20T07:40:19.354Z,14.83
2019-01-20T07:42:47.720Z,13.53
2019-01-20T07:45:17.330Z,17.20
2019-01-20T07:47:45.750Z,16.90
2019-01-20T07:50:16.363Z,16.13
2019-01-20T07:52:44.734Z,18.17
2019-01-20T07:55:13.135Z,19.43
2019-01-20T07:57:41.511Z,20.03
2019-01-20T08:00:19.571Z,17.73
2019-01-20T08:02:47.947Z,17.13
2019-01-20T08:05:16.592Z,15.30
2019-01-20T08:07:45.011Z,19.30
2019-01-20T08:10:21.531Z,18.77
2019-01-20T08:12:49.952Z,19.63
2019-01-20T08:15:18.328Z,21.90
2019-01-20T08:17:46.704Z,18.93
2019-01-20T08:20:18.579Z,16.63
2019-01-20T08:22:46.942Z,19.23
2019-01-20T08:25:16.755Z,19.23
2019-01-20T08:27:45.160Z,18.80
2019-01-20T08:30:16.227Z,19.60
2019-01-20T08:32:44.609Z,18.03
2019-01-20T08:35:14.138Z,14.13
2019-01-20T08:37:42.521Z,14.40
2019-01-20T08:40:26.433Z,15.97
2019-01-20T08:42:54.783Z,13.60
2019-01-20T08:45:41.581Z,12.97
2019-01-20T08:48:16.643Z,13.37
2019-01-20T08:50:45.018Z,13.17
2019-01-20T08:53:13.439Z,13.10
2019-01-20T08:55:41.811Z,11.50
2019-01-20T08:58:10.184Z,12.23
2019-01-20T09:00:40.725Z,12.97
2019-01-20T09:03:09.159Z,15.77
2019-01-20T09:05:37.522Z,15.93
2019-01-20T09:08:05.937Z,15.70
2019-01-20T09:10:34.314Z,12.60
2019-01-20T09:13:04.318Z,15.93
2019-01-20T09:15:32.723Z,13.87
2019-01-20T09:18:01.094Z,13.37
2019-01-20T09:20:29.459Z,14.70
2019-01-20T09:22:58.906Z,15.93
2019-01-20T09:25:27.270Z,13.17
2019-01-20T09:27:55.651Z,15.80
2019-01-20T09:30:24.419Z,14.73
2019-01-20T09:32:52.797Z,16.03
2019-01-20T09:35:22.498Z,16.93
2019-01-20T09:37:50.888Z,17.17
2019-01-20T09:40:19.258Z,18.20
2019-01-20T09:42:49.091Z,19.87
2019-01-20T09:45:27.523Z,19.50
2019-01-20T09:47:56.863Z,17.83
2019-01-20T09:50:25.245Z,16.87
2019-01-20T09:52:53.904Z,16.87
2019-01-20T09:55:22.297Z,16.20
2019-01-20T09:57:50.659Z,18.70
2019-01-20T10:00:21.602Z,19.67
2019-01-20T10:02:50.843Z,15.60
2019-01-20T10:05:19.217Z,13.87
2019-01-20T10:07:47.655Z,14.27
2019-01-20T10:10:18.026Z,14.43
2019-01-20T10:12:46.464Z,15.07
2019-01-20T10:15:16.580Z,15.50
2019-01-20T10:17:44.982Z,14.47
2019-01-20T10:20:22.092Z,17.73
2019-01-20T10:22:51.614Z,12.97
2019-01-20T10:25:20.162Z,16.20
2019-01-20T10:27:48.835Z,14.07
2019-01-20T10:30:22.983Z,16.73
2019-01-20T10:32:51.354Z,14.00
2019-01-20T10:35:21.366Z,14.57
2019-01-20T10:37:51.063Z,14.90
2019-01-20T10:40:19.440Z,15.10
2019-01-20T10:42:47.807Z,14.17
2019-01-20T10:45:16.991Z,13.63
2019-01-20T10:47:45.363Z,12.70
2019-01-20T10:50:15.770Z,13.43
2019-01-20T10:52:44.227Z,12.90
2019-01-20T10:55:12.603Z,13.37
2019-01-20T10:57:40.981Z,12.10
2019-01-20T11:00:15.706Z,12.43
2019-01-20T11:02:44.075Z,12.90
2019-01-20T11:05:12.466Z,12.50
2019-01-20T11:07:41.451Z,13.23
2019-01-20T11:10:11.264Z,12.60
2019-01-20T11:12:40.923Z,11.53
2019-01-20T11:15:11.800Z,12.40
2019-01-20T11:17:40.164Z,12.40
2019-01-20T11:20:16.803Z,12.67
2019-01-20T11:22:45.179Z,11.63
2019-01-20T11:25:16.811Z,12.07
2019-01-20T11:27:45.971Z,13.10
2019-01-20T11:30:14.335Z,13.73
2019-01-20T11:32:42.717Z,14.50
2019-01-20T11:35:17.292Z,12.73
2019-01-20T11:37:45.674Z,13.33
2019-01-20T11:40:15.353Z,14.00
2019-01-20T11:42:43.760Z,13.40
2019-01-20T11:45:15.409Z,15.73
2019-01-20T11:47:43.778Z,14.63
2019-01-20T11:50:14.259Z,14.33
2019-01-20T11:52:42.640Z,14.37
2019-01-20T11:55:16.951Z,14.47
2019-01-20T11:57:45.367Z,15.20
2019-01-20T12:00:22.391Z,17.57
2019-01-20T12:02:50.840Z,13.10
2019-01-20T12:05:19.750Z,14.97
2019-01-20T12:07:48.122Z,13.90
2019-01-20T12:10:17.482Z,13.23
2019-01-20T12:12:47.487Z,13.73
2019-01-20T12:15:16.235Z,13.37
2019-01-20T12:17:44.650Z,12.67
2019-01-20T12:20:14.661Z,12.43
2019-01-20T12:22:43.207Z,12.67
2019-01-20T12:25:16.475Z,12.53
2019-01-20T12:27:44.837Z,12.10
2019-01-20T12:30:28.064Z,12.77
2019-01-20T12:32:56.427Z,14.33
2019-01-20T12:35:24.802Z,12.60
2019-01-20T12:37:53.202Z,11.87
2019-01-20T12:40:25.727Z,12.90
2019-01-20T12:42:54.090Z,12.93
2019-01-20T12:45:22.494Z,12.77
2019-01-20T12:47:50.795Z,13.03
2019-01-20T12:50:19.163Z,12.90
2019-01-20T12:52:48.247Z,12.70
2019-01-20T12:55:16.620Z,13.40
2019-01-20T12:57:44.989Z,13.60
2019-01-20T13:00:20.259Z,14.07
2019-01-20T13:02:48.698Z,14.97
2019-01-20T13:05:17.066Z,14.37
2019-01-20T13:07:45.481Z,14.00
2019-01-20T13:10:18.362Z,14.80
2019-01-20T13:12:46.788Z,14.13
2019-01-20T13:15:17.642Z,13.83
2019-01-20T13:17:46.007Z,13.90
2019-01-20T13:20:20.407Z,13.67
2019-01-20T13:22:48.809Z,13.60
2019-01-20T13:25:19.718Z,12.73
2019-01-20T13:27:48.086Z,13.73
2019-01-20T13:30:22.128Z,13.87
2019-01-20T13:32:50.488Z,13.60
2019-01-20T13:35:20.004Z,12.60
2019-01-20T13:37:51.311Z,13.10
2019-01-20T13:40:25.879Z,12.87
2019-01-20T13:42:55.884Z,12.73
2019-01-20T13:45:24.252Z,13.80
2019-01-20T13:47:52.623Z,13.20
2019-01-20T13:50:21.976Z,15.37
2019-01-20T13:52:50.340Z,13.60
2019-01-20T13:55:18.707Z,13.20
2019-01-20T13:57:47.116Z,14.30
2019-01-20T14:00:18.175Z,13.40
2019-01-20T14:02:46.471Z,13.07
2019-01-20T14:05:14.894Z,13.47
2019-01-20T14:07:43.263Z,13.97
2019-01-20T14:10:16.987Z,13.17
2019-01-20T14:12:46.026Z,13.43
2019-01-20T14:15:15.640Z,12.93
2019-01-20T14:17:45.044Z,13.17
2019-01-20T14:20:15.899Z,12.47
2019-01-20T14:22:44.268Z,13.10
2019-01-20T14:25:15.475Z,13.20
2019-01-20T14:27:43.883Z,13.57
2019-01-20T14:30:20.859Z,13.23
2019-01-20T14:32:49.969Z,14.17
2019-01-20T14:35:18.337Z,14.40
2019-01-20T14:37:46.708Z,16.13
2019-01-20T14:40:17.255Z,17.60
2019-01-20T14:42:45.628Z,17.37
2019-01-20T14:45:17.601Z,19.50
2019-01-20T14:47:46.007Z,17.47
2019-01-20T14:50:23.136Z,16.67
2019-01-20T14:52:52.798Z,15.07
2019-01-20T14:55:21.234Z,16.97
2019-01-20T14:57:49.940Z,14.33
2019-01-20T15:00:38.147Z,14.87
2019-01-20T15:03:07.250Z,14.17
2019-01-20T15:05:35.622Z,14.80
2019-01-20T15:08:05.007Z,13.93
2019-01-20T15:10:33.364Z,14.17
2019-01-20T15:13:01.727Z,13.83
2019-01-20T15:15:35.518Z,17.20
2019-01-20T15:18:04.279Z,16.77
2019-01-20T15:20:32.645Z,18.20
2019-01-20T15:23:01.048Z,18.43
2019-01-20T15:25:29.413Z,18.47
2019-01-20T15:27:57.783Z,16.90
2019-01-20T15:30:32.246Z,16.97
2019-01-20T15:33:02.219Z,16.60
2019-01-20T15:35:30.597Z,16.57
2019-01-20T15:37:58.988Z,17.37
2019-01-20T15:40:27.631Z,17.70
2019-01-20T15:42:56.076Z,17.80
2019-01-20T15:45:24.960Z,17.80
2019-01-20T15:47:54.020Z,17.53
2019-01-20T15:50:30.908Z,17.33
2019-01-20T15:52:59.280Z,16.67
2019-01-20T15:55:27.660Z,17.27
2019-01-20T15:57:56.058Z,16.60
2019-01-20T16:00:27.242Z,16.40
2019-01-20T16:02:55.610Z,17.40
2019-01-20T16:05:26.057Z,16.23
2019-01-20T16:07:54.424Z,17.17
2019-01-20T16:10:22.791Z,23.17
2019-01-20T16:12:51.191Z,23.37
2019-01-20T16:15:25.169Z,25.40
2019-01-20T16:17:54.723Z,24.20
2019-01-20T16:20:23.642Z,22.93
2019-01-20T16:22:52.448Z,19.87
2019-01-20T16:25:33.347Z,19.00
2019-01-20T16:28:01.724Z,18.53
2019-01-20T16:30:35.687Z,17.87
2019-01-20T16:33:04.094Z,17.57
2019-01-20T16:35:32.473Z,15.87
2019-01-20T16:38:01.574Z,18.03
2019-01-20T16:40:29.979Z,17.53
2019-01-20T16:42:58.347Z,26.63
2019-01-20T16:45:41.933Z,20.90
2019-01-20T16:48:07.659Z,19.07
2019-01-20T16:50:37.104Z,16.97
2019-01-20T16:53:05.535Z,18.67
2019-01-20T16:55:33.906Z,18.10
2019-01-20T16:58:02.665Z,18.77
2019-01-20T17:00:36.656Z,18.83
2019-01-20T17:03:05.028Z,19.60
2019-01-20T17:05:33.400Z,18.23
2019-01-20T17:08:02.704Z,18.07
2019-01-20T17:10:36.595Z,18.57
2019-01-20T17:13:05.407Z,24.17
2019-01-20T17:15:39.691Z,27.60
2019-01-20T17:18:07.836Z,27.50
2019-01-20T17:20:36.210Z,26.33
2019-01-20T17:23:05.593Z,26.00
2019-01-20T17:25:33.959Z,26.90
2019-01-20T17:28:02.334Z,27.87
2019-01-20T17:30:33.199Z,29.93
2019-01-20T17:33:01.907Z,28.97
2019-01-20T17:35:30.274Z,25.10
2019-01-20T17:37:58.680Z,20.50
2019-01-20T17:40:28.197Z,23.60
2019-01-20T17:42:56.838Z,22.37
2019-01-20T17:45:31.067Z,20.90
2019-01-20T17:47:59.438Z,21.13
2019-01-20T17:50:30.254Z,22.03
2019-01-20T17:53:00.696Z,31.00
2019-01-20T17:55:29.178Z,33.03
2019-01-20T17:57:57.538Z,29.37
2019-01-20T18:00:33.853Z,33.97
2019-01-20T18:03:02.214Z,35.40
2019-01-20T18:05:30.960Z,31.23
2019-01-20T18:07:59.386Z,38.43
2019-01-20T18:10:27.777Z,35.47
2019-01-20T18:12:56.143Z,31.50
2019-01-20T18:15:26.194Z,29.50
2019-01-20T18:17:54.560Z,26.67
2019-01-20T18:20:32.519Z,28.13
2019-01-20T18:23:00.897Z,30.03
2019-01-20T18:25:29.277Z,32.70
2019-01-20T18:27:57.675Z,28.20
2019-01-20T18:30:28.556Z,29.27
2019-01-20T18:32:56.923Z,27.93
2019-01-20T18:35:26.775Z,27.47
2019-01-20T18:37:55.154Z,28.77
2019-01-20T18:40:24.971Z,27.63
2019-01-20T18:42:53.554Z,28.90
2019-01-20T18:45:30.210Z,27.13
2019-01-20T18:47:58.651Z,26.50
2019-01-20T18:50:32.450Z,21.57
2019-01-20T18:53:00.827Z,20.20
2019-01-20T18:55:30.481Z,20.27
2019-01-20T18:57:58.851Z,17.53
2019-01-20T19:00:44.019Z,22.50
2019-01-20T19:03:12.391Z,26.60
2019-01-20T19:05:40.775Z,25.47
2019-01-20T19:08:09.191Z,26.73
2019-01-20T19:10:37.563Z,29.87
2019-01-20T19:13:05.944Z,97.07
2019-01-20T19:15:34.367Z,95.63
2019-01-20T19:18:02.821Z,123.27
2019-01-20T19:20:31.190Z,40.00
2019-01-20T19:23:01.059Z,28.23
2019-01-20T19:25:29.428Z,30.27
2019-01-20T19:27:57.805Z,31.10
2019-01-20T19:30:28.448Z,29.27
2019-01-20T19:32:56.823Z,30.07
2019-01-20T19:35:25.632Z,29.43
2019-01-20T19:37:54.036Z,26.67
2019-01-20T19:40:22.404Z,27.07
2019-01-20T19:42:50.776Z,30.63
2019-01-20T19:45:21.031Z,39.80
2019-01-20T19:47:49.575Z,36.20
2019-01-20T19:50:18.228Z,38.57
2019-01-20T19:52:46.600Z,33.30
2019-01-20T19:55:17.862Z,34.50
2019-01-20T19:57:47.939Z,31.30
2019-01-20T20:00:21.418Z,34.60
2019-01-20T20:02:49.786Z,30.03
2019-01-20T20:05:19.395Z,37.83
2019-01-20T20:07:49.075Z,34.53
2019-01-20T20:10:19.593Z,33.37
2019-01-20T20:12:48.016Z,34.87
2019-01-20T20:15:18.459Z,31.97
2019-01-20T20:17:47.232Z,27.37
2019-01-20T20:20:17.043Z,27.07
2019-01-20T20:22:45.471Z,27.60
2019-01-20T20:25:18.658Z,27.97
2019-01-20T20:27:47.040Z,25.60
2019-01-20T20:30:21.975Z,24.90
2019-01-20T20:32:50.347Z,25.57
2019-01-20T20:35:18.730Z,23.10
2019-01-20T20:37:47.156Z,25.73
2019-01-20T20:40:18.228Z,25.80
2019-01-20T20:42:46.608Z,24.53
2019-01-20T20:45:17.908Z,24.33
2019-01-20T20:47:46.280Z,25.03
2019-01-20T20:50:16.091Z,26.90
2019-01-20T20:52:46.111Z,26.63
2019-01-20T20:55:14.757Z,22.87
2019-01-20T20:57:43.133Z,22.00
2019-01-20T21:00:17.815Z,21.33
2019-01-20T21:02:46.187Z,22.27
2019-01-20T21:05:14.559Z,22.03
2019-01-20T21:07:42.971Z,22.27
2019-01-20T21:10:16.982Z,23.47
2019-01-20T21:12:45.371Z,22.27
2019-01-20T21:15:15.758Z,21.57
2019-01-20T21:17:48.300Z,20.93
2019-01-20T21:20:17.058Z,20.97
2019-01-20T21:22:45.473Z,20.27
2019-01-20T21:25:13.848Z,19.97
2019-01-20T21:27:42.219Z,21.17
2019-01-20T21:30:13.756Z,21.97
2019-01-20T21:32:42.129Z,23.77
2019-01-20T21:35:10.498Z,24.47
2019-01-20T21:37:39.223Z,22.50
2019-01-20T21:40:10.495Z,24.23
2019-01-20T21:42:38.866Z,22.33
2019-01-20T21:45:09.503Z,21.57
2019-01-20T21:47:37.877Z,22.00
2019-01-20T21:50:09.603Z,23.70
2019-01-20T21:52:38.017Z,22.70
2019-01-20T21:55:06.387Z,23.57
2019-01-20T21:57:34.760Z,24.27
2019-01-20T22:00:04.612Z,23.67
2019-01-20T22:02:35.506Z,23.70
2019-01-20T22:05:04.848Z,21.00
2019-01-20T22:07:33.256Z,24.20
2019-01-20T22:10:01.631Z,27.07
2019-01-20T22:12:30.004Z,28.90
2019-01-20T22:14:59.095Z,28.30
2019-01-20T22:17:27.472Z,27.70
2019-01-20T22:19:55.848Z,27.57
2019-01-20T22:22:24.250Z,29.30
2019-01-20T22:24:52.624Z,28.00
2019-01-20T22:27:20.996Z,28.70
2019-01-20T22:29:49.405Z,31.73
2019-01-20T22:32:17.776Z,29.43
2019-01-20T22:34:46.142Z,29.43
2019-01-20T22:37:15.496Z,29.47
2019-01-20T22:39:43.859Z,28.90
2019-01-20T22:42:12.232Z,29.57
2019-01-20T22:44:40.631Z,28.47
2019-01-20T22:47:09.004Z,27.50
2019-01-20T22:49:37.375Z,23.50
2019-01-20T22:52:05.795Z,26.57
2019-01-20T22:54:34.172Z,26.37
2019-01-20T22:57:02.548Z,24.57
2019-01-20T22:59:32.344Z,25.97
2019-01-20T23:02:00.783Z,24.33
2019-01-20T23:04:30.067Z,22.70
2019-01-20T23:06:58.486Z,26.37
2019-01-20T23:09:26.859Z,26.07
2019-01-20T23:11:55.230Z,26.80
2019-01-20T23:14:23.643Z,24.87
2019-01-20T23:16:52.020Z,22.33
2019-01-20T23:19:20.391Z,24.87
2019-01-20T23:21:49.821Z,24.33
2019-01-20T23:24:18.191Z,24.60
2019-01-20T23:26:46.566Z,25.73
2019-01-20T23:29:14.986Z,24.73
2019-01-20T23:31:43.357Z,24.10
2019-01-20T23:34:11.729Z,21.83
2019-01-20T23:36:40.168Z,25.47
2019-01-20T23:39:08.590Z,23.97
2019-01-20T23:41:36.958Z,27.33
2019-01-20T23:44:06.163Z,26.83
2019-01-20T23:46:34.536Z,25.53
2019-01-20T23:49:02.906Z,25.47
2019-01-20T23:51:31.322Z,27.87
2019-01-20T23:53:59.691Z,28.27
2019-01-20T23:56:28.064Z,31.03
2019-01-20T23:58:56.466Z,27.77
